Time;durP1;ratioP1;P1;durP2;ratioP2;P2;SDS_P1;SDS_P2;PMS_P1;PMS_P2;Temp;Humidity;BMP_temperature;BMP_pressure;BME280_temperature;BME280_humidity;BME280_pressure;Samples;Min_cycle;Max_cycle;Signal;HPM_P1;HPM_P2
2021/07/03 00:01:06;;;;;;;8.40;1.38;;;;;;;14.37;100.00;99600.91;6285361;22;20023;-58
2021/07/03 00:04:09;;;;;;;6.13;1.67;;;;;;;14.31;100.00;99597.31;6239025;22;20026;-57
2021/07/03 00:07:13;;;;;;;5.00;1.73;;;;;;;14.33;100.00;99600.38;6283961;22;20027;-57
2021/07/03 00:10:17;;;;;;;5.75;1.90;;;;;;;14.36;100.00;99599.34;6285598;22;20023;-57
2021/07/03 00:13:20;;;;;;;4.85;1.80;;;;;;;14.43;100.00;99601.66;6285344;22;20345;-57
2021/07/03 00:16:24;;;;;;;7.65;1.50;;;;;;;14.42;100.00;99596.56;6285708;22;20022;-57
2021/07/03 00:19:27;;;;;;;9.57;1.33;;;;;;;14.40;100.00;99588.66;6284797;22;20247;-57
2021/07/03 00:22:30;;;;;;;5.50;1.52;;;;;;;14.41;100.00;99590.19;6285468;22;20023;-58
2021/07/03 00:25:35;;;;;;;5.60;1.10;;;;;;;14.42;100.00;99591.72;6285242;22;20027;-58
2021/07/03 00:28:38;;;;;;;2.88;1.00;;;;;;;14.40;100.00;99599.13;6285850;22;20026;-58
2021/07/03 00:31:42;;;;;;;3.65;1.23;;;;;;;14.40;100.00;99593.50;6287427;22;20026;-58
2021/07/03 00:34:45;;;;;;;6.43;1.20;;;;;;;14.40;100.00;99593.50;6287511;22;20015;-58
2021/07/03 00:37:49;;;;;;;3.58;1.50;;;;;;;14.45;100.00;99584.34;6287164;22;20022;-58
2021/07/03 00:40:54;;;;;;;5.35;1.40;;;;;;;14.44;100.00;99582.81;6287716;22;20026;-58
2021/07/03 00:43:58;;;;;;;2.60;1.55;;;;;;;14.41;100.00;99589.44;6287600;22;20345;-58
2021/07/03 00:47:03;;;;;;;5.35;1.83;;;;;;;14.42;100.00;99580.50;6287987;22;20027;-58
2021/07/03 00:50:10;;;;;;;5.07;1.67;;;;;;;14.41;100.00;99572.63;6287326;22;20336;-58
2021/07/03 00:53:17;;;;;;;5.85;1.70;;;;;;;14.42;100.00;99585.38;6287800;22;20031;-58
2021/07/03 00:56:21;;;;;;;5.35;1.77;;;;;;;14.40;100.00;99577.44;6287221;22;20030;-58
2021/07/03 00:59:24;;;;;;;3.25;1.23;;;;;;;14.34;100.00;99579.50;6287735;22;20027;-58
2021/07/03 01:02:28;;;;;;;1.70;0.68;;;;;;;14.32;100.00;99581.25;6286846;22;20026;-58
2021/07/03 01:05:32;;;;;;;3.58;1.27;;;;;;;14.30;100.00;99572.59;6287609;22;20023;-58
2021/07/03 01:08:35;;;;;;;3.45;0.98;;;;;;;14.30;100.00;99572.59;6286883;22;20356;-58
2021/07/03 01:11:38;;;;;;;7.03;1.75;;;;;;;14.27;100.00;99568.00;6287357;22;20026;-58
2021/07/03 01:14:47;;;;;;;5.30;1.20;;;;;;;14.29;100.00;99565.50;6267615;22;20039;-58
2021/07/03 01:17:51;;;;;;;4.18;1.50;;;;;;;14.25;100.00;99564.94;6287195;22;20460;-59
2021/07/03 01:20:55;;;;;;;3.40;1.17;;;;;;;14.26;100.00;99563.66;6286923;22;20026;-58
2021/07/03 01:23:58;;;;;;;7.10;1.80;;;;;;;14.29;100.00;99568.28;6287552;22;20026;-58
2021/07/03 01:27:02;;;;;;;4.72;1.20;;;;;;;14.34;100.00;99561.91;6286606;22;20023;-58
2021/07/03 01:30:10;;;;;;;5.15;1.55;;;;;;;14.30;100.00;99553.75;6287555;22;20023;-58
2021/07/03 01:33:14;;;;;;;2.75;1.33;;;;;;;14.30;100.00;99553.00;6286983;22;20034;-57
2021/07/03 01:36:18;;;;;;;2.55;0.70;;;;;;;14.32;100.00;99553.25;6287524;22;20018;-57
2021/07/03 01:39:22;;;;;;;3.95;1.30;;;;;;;14.34;100.00;99556.31;6286492;22;20026;-57
2021/07/03 01:42:26;;;;;;;11.65;2.28;;;;;;;14.34;100.00;99550.69;6287267;22;20019;-57
2021/07/03 01:45:29;;;;;;;8.93;1.15;;;;;;;14.37;100.00;99560.91;6286669;22;20030;-57
2021/07/03 01:48:33;;;;;;;3.92;1.25;;;;;;;14.39;100.00;99559.13;6286888;22;20023;-57
2021/07/03 01:51:38;;;;;;;4.25;1.45;;;;;;;14.43;100.00;99558.88;6281202;22;20046;-57
2021/07/03 01:54:41;;;;;;;5.35;1.23;;;;;;;14.46;100.00;99554.28;6287117;22;20018;-57
2021/07/03 01:57:45;;;;;;;3.95;1.40;;;;;;;14.52;100.00;99555.03;6286853;22;20018;-57
2021/07/03 02:00:53;;;;;;;5.60;1.23;;;;;;;14.50;100.00;99547.16;6287052;22;20451;-57
2021/07/03 02:03:56;;;;;;;6.03;1.27;;;;;;;14.53;100.00;99550.97;6268201;22;20042;-57
2021/07/03 02:07:00;;;;;;;2.05;0.77;;;;;;;14.52;100.00;99552.25;6286483;22;20027;-57
2021/07/03 02:10:04;;;;;;;6.18;1.52;;;;;;;14.47;100.00;99544.63;6286507;22;20026;-57
2021/07/03 02:13:08;;;;;;;3.58;1.45;;;;;;;14.45;100.00;99545.09;6286432;22;20027;-57
2021/07/03 02:16:12;;;;;;;4.25;1.05;;;;;;;14.47;100.00;99542.56;6286099;22;20031;-57
2021/07/03 02:19:16;;;;;;;8.82;1.67;;;;;;;14.46;100.00;99540.28;6286612;22;20026;-57
2021/07/03 02:22:20;;;;;;;12.50;2.22;;;;;;;14.42;100.00;99541.28;6286619;22;20023;-57
2021/07/03 02:25:24;;;;;;;9.88;2.75;;;;;;;14.45;100.00;99528.28;6286586;22;20026;-58
2021/07/03 02:28:28;;;;;;;4.82;2.28;;;;;;;14.51;100.00;99537.44;6286447;22;20023;-57
2021/07/03 02:31:31;;;;;;;8.57;2.28;;;;;;;14.51;100.00;99531.84;6285955;22;20018;-57
2021/07/03 02:34:35;;;;;;;4.45;1.27;;;;;;;14.51;100.00;99531.84;6286066;22;20022;-58
2021/07/03 02:37:39;;;;;;;3.72;1.02;;;;;;;14.52;100.00;99527.78;6286555;22;20309;-57
2021/07/03 02:40:43;;;;;;;2.58;0.85;;;;;;;14.50;100.00;99526.75;6286452;22;20022;-58
2021/07/03 02:43:46;;;;;;;5.25;1.92;;;;;;;14.47;100.00;99520.13;6286671;22;20337;-57
2021/07/03 02:46:49;;;;;;;4.88;1.38;;;;;;;14.42;100.00;99512.53;6286287;22;20724;-57
2021/07/03 02:49:53;;;;;;;4.50;1.85;;;;;;;14.39;100.00;99519.13;6286581;22;20042;-58
2021/07/03 02:52:56;;;;;;;2.42;0.77;;;;;;;14.37;100.00;99521.69;6286350;22;20432;-57
2021/07/03 02:56:01;;;;;;;4.47;1.50;;;;;;;14.35;100.00;99516.59;6286158;22;20038;-58
2021/07/03 02:59:04;;;;;;;8.40;2.38;;;;;;;14.31;100.00;99532.13;6286653;22;20479;-57
2021/07/03 03:02:07;;;;;;;3.70;1.00;;;;;;;14.30;100.00;99525.75;6286353;22;20022;-58
2021/07/03 03:05:14;;;;;;;4.85;1.63;;;;;;;14.30;100.00;99517.34;6286119;22;20524;-57
2021/07/03 03:08:18;;;;;;;2.78;1.48;;;;;;;14.34;100.00;99519.88;6286171;22;20531;-58
2021/07/03 03:11:21;;;;;;;6.85;2.72;;;;;;;14.34;100.00;99519.88;6286312;22;20459;-57
2021/07/03 03:14:24;;;;;;;6.00;1.90;;;;;;;14.40;100.00;99515.06;6286210;22;20022;-57
2021/07/03 03:17:28;;;;;;;3.08;1.38;;;;;;;14.37;100.00;99513.28;6286016;22;20736;-57
2021/07/03 03:20:31;;;;;;;7.15;2.05;;;;;;;14.39;100.00;99513.53;6285669;22;20027;-57
2021/07/03 03:23:35;;;;;;;4.55;1.95;;;;;;;14.38;100.00;99517.59;6286277;22;20333;-57
2021/07/03 03:26:39;;;;;;;5.90;2.22;;;;;;;14.42;100.00;99510.47;6285780;22;20043;-57
2021/07/03 03:29:42;;;;;;;6.45;2.10;;;;;;;14.45;100.00;99522.69;6285802;22;20023;-57
2021/07/03 03:32:45;;;;;;;5.75;1.60;;;;;;;14.37;100.00;99521.69;6285981;22;20027;-57
2021/07/03 03:35:50;;;;;;;6.18;1.95;;;;;;;14.44;100.00;99516.31;6285842;22;20026;-57
2021/07/03 03:38:53;;;;;;;5.43;1.52;;;;;;;14.42;100.00;99513.25;6285831;22;20126;-57
2021/07/03 03:41:57;;;;;;;4.28;1.48;;;;;;;14.43;100.00;99514.03;6285723;22;20022;-57
2021/07/03 03:45:00;;;;;;;5.90;1.83;;;;;;;14.44;100.00;99507.91;6285636;22;20467;-57
2021/07/03 03:48:06;;;;;;;5.40;1.60;;;;;;;14.38;100.00;99501.56;6286243;22;20034;-58
2021/07/03 03:51:09;;;;;;;4.28;1.05;;;;;;;14.37;100.00;99504.88;6282836;22;20031;-57
2021/07/03 03:54:13;;;;;;;6.72;2.08;;;;;;;14.38;100.00;99506.38;6285223;22;20042;-57
2021/07/03 03:57:30;;;;;;;8.50;2.25;;;;;;;14.40;100.00;99503.88;6285339;22;20018;-57
2021/07/03 04:00:34;;;;;;;7.90;2.40;;;;;;;14.37;100.00;99496.47;6285665;22;20023;-57
2021/07/03 04:03:37;;;;;;;12.18;1.90;;;;;;;14.36;100.00;99500.53;6285999;22;20403;-57
2021/07/03 04:06:41;;;;;;;8.60;2.17;;;;;;;14.40;100.00;99503.88;6288021;22;20023;-57
2021/07/03 04:09:44;;;;;;;8.07;2.72;;;;;;;14.40;100.00;99507.41;6287923;22;20492;-58
2021/07/03 04:12:48;;;;;;;5.60;2.08;;;;;;;14.39;100.00;99507.94;6288391;22;20022;-58
2021/07/03 04:15:51;;;;;;;6.82;1.45;;;;;;;14.46;100.00;99507.41;6288225;22;20022;-57
2021/07/03 04:18:54;;;;;;;3.47;1.27;;;;;;;14.49;100.00;99509.19;6269119;22;20043;-58
2021/07/03 04:21:59;;;;;;;5.13;2.22;;;;;;;14.50;100.00;99501.56;6287806;22;20027;-57
2021/07/03 04:25:06;;;;;;;7.07;2.38;;;;;;;14.53;100.00;99508.94;6288348;22;20027;-57
2021/07/03 04:28:09;;;;;;;7.13;2.38;;;;;;;14.55;100.00;99504.34;6288052;22;20026;-57
2021/07/03 04:31:13;;;;;;;4.32;1.90;;;;;;;14.57;100.00;99507.41;6287138;22;20026;-57
2021/07/03 04:34:16;;;;;;;10.45;2.15;;;;;;;14.62;100.00;99503.81;6287307;22;20022;-57
2021/07/03 04:37:20;;;;;;;10.63;2.50;;;;;;;14.64;100.00;99506.88;6287312;22;20023;-57
2021/07/03 04:40:23;;;;;;;9.20;2.22;;;;;;;14.64;100.00;99506.88;6287678;22;20042;-57
2021/07/03 04:43:26;;;;;;;7.38;1.70;;;;;;;14.67;100.00;99511.47;6287199;22;20026;-57
2021/07/03 04:46:30;;;;;;;14.13;3.45;;;;;;;14.68;100.00;99507.41;6268774;22;20038;-57
2021/07/03 04:49:34;;;;;;;9.48;2.50;;;;;;;14.72;100.00;99505.09;6287479;22;20021;-57
2021/07/03 04:52:38;;;;;;;12.45;2.50;;;;;;;14.75;100.00;99506.84;6278306;22;20035;-56
2021/07/03 04:55:41;;;;;;;5.60;2.25;;;;;;;14.72;100.00;99513.50;6287046;22;20444;-56
2021/07/03 04:58:45;;;;;;;4.35;2.05;;;;;;;14.72;100.00;99507.13;6287484;22;20043;-57
2021/07/03 05:01:49;;;;;;;6.72;2.25;;;;;;;14.71;100.00;99506.34;6287370;22;20022;-57
2021/07/03 05:04:53;;;;;;;5.55;2.28;;;;;;;14.71;100.00;99511.97;6287411;22;20026;-57
2021/07/03 05:07:57;;;;;;;8.18;2.70;;;;;;;14.71;100.00;99511.19;6268268;22;20022;-57
2021/07/03 05:11:01;;;;;;;14.10;2.55;;;;;;;14.68;100.00;99513.00;6287321;22;20046;-57
2021/07/03 05:14:05;;;;;;;11.30;2.85;;;;;;;14.71;100.00;99511.97;6286505;22;20031;-57
2021/07/03 05:17:08;;;;;;;4.80;1.63;;;;;;;14.72;100.00;99512.75;6287039;22;20038;-57
2021/07/03 05:20:12;;;;;;;4.53;1.60;;;;;;;14.71;100.00;99511.97;6286375;22;20030;-57
2021/07/03 05:23:16;;;;;;;10.80;2.40;;;;;;;14.73;100.00;99515.03;6287502;22;20022;-57
2021/07/03 05:26:20;;;;;;;8.75;1.55;;;;;;;14.76;100.00;99511.19;6286761;22;20035;-57
2021/07/03 05:29:23;;;;;;;12.23;3.50;;;;;;;14.80;100.00;99514.50;6268873;22;20473;-57
2021/07/03 05:32:26;;;;;;;9.20;3.38;;;;;;;14.84;100.00;99515.00;6286771;22;20023;-57
2021/07/03 05:35:30;;;;;;;5.78;2.05;;;;;;;14.87;100.00;99513.22;6287365;22;20018;-57
2021/07/03 05:38:40;;;;;;;9.60;3.10;;;;;;;14.86;100.00;99506.84;6286815;22;20341;-57
2021/07/03 05:41:44;;;;;;;4.35;1.45;;;;;;;14.84;100.00;99506.59;6287487;22;20018;-57
2021/07/03 05:44:47;;;;;;;9.02;2.53;;;;;;;14.87;100.00;99497.16;6286559;22;20022;-57
2021/07/03 05:47:51;;;;;;;7.63;2.83;;;;;;;14.89;100.00;99500.22;6287320;22;20027;-57
2021/07/03 05:50:55;;;;;;;11.73;2.08;;;;;;;14.87;100.00;99507.59;6266194;22;20030;-57
2021/07/03 05:53:59;;;;;;;10.18;2.17;;;;;;;14.86;100.00;99497.66;6287274;22;20038;-57
2021/07/03 05:57:03;;;;;;;7.10;2.72;;;;;;;14.91;100.00;99503.25;6267734;22;20034;-57
2021/07/03 06:00:08;;;;;;;4.93;2.10;;;;;;;14.95;100.00;99497.38;6268559;22;20022;-57
2021/07/03 06:03:12;;;;;;;8.43;2.13;;;;;;;14.93;100.00;99500.72;6287064;22;20027;-57
2021/07/03 06:06:15;;;;;;;6.60;2.05;;;;;;;14.98;100.00;99499.94;6268062;22;20547;-57
2021/07/03 06:09:19;;;;;;;3.17;1.92;;;;;;;15.00;100.00;99500.19;6267384;22;20042;-57
2021/07/03 06:12:23;;;;;;;8.25;2.90;;;;;;;15.03;100.00;99507.56;6286891;22;20077;-56
2021/07/03 06:15:27;;;;;;;7.60;2.00;;;;;;;15.14;100.00;99496.31;6286898;22;20023;-57
2021/07/03 06:18:30;;;;;;;7.15;2.13;;;;;;;15.30;100.00;99499.56;6287228;22;20023;-57
2021/07/03 06:21:34;;;;;;;8.63;2.05;;;;;;;15.34;100.00;99498.00;6267902;22;20329;-57
2021/07/03 06:24:38;;;;;;;9.48;3.17;;;;;;;15.42;100.00;99490.56;6268375;22;20027;-57
2021/07/03 06:27:41;;;;;;;6.03;1.77;;;;;;;15.50;100.00;99496.44;6268046;22;20042;-57
2021/07/03 06:30:45;;;;;;;8.25;2.28;;;;;;;15.56;100.00;99488.75;6286268;22;20027;-57
2021/07/03 06:33:48;;;;;;;6.78;1.70;;;;;;;15.61;100.00;99485.91;6286129;22;20345;-57
2021/07/03 06:36:52;;;;;;;6.50;1.92;;;;;;;15.77;100.00;99487.84;6286859;22;20456;-57
2021/07/03 06:39:55;;;;;;;5.85;1.50;;;;;;;15.91;100.00;99491.59;6286910;22;20353;-57
2021/07/03 06:42:59;;;;;;;7.22;2.35;;;;;;;15.96;100.00;99493.59;6287081;22;20022;-57
2021/07/03 06:46:02;;;;;;;7.22;2.42;;;;;;;15.98;100.00;99490.28;6286428;22;20018;-57
2021/07/03 06:49:05;;;;;;;8.27;3.10;;;;;;;15.92;100.00;99487.50;6286844;22;20026;-57
2021/07/03 06:52:10;;;;;;;4.95;1.77;;;;;;;15.96;100.00;99498.47;6258277;22;20027;-57
2021/07/03 06:55:14;;;;;;;6.10;1.38;;;;;;;15.95;100.00;99497.69;6255392;23;20031;-57
2021/07/03 06:58:18;;;;;;;5.63;2.00;;;;;;;15.96;100.00;99493.59;6255011;23;20027;-58
2021/07/03 07:01:21;;;;;;;7.38;2.45;;;;;;;15.95;100.00;99486.47;6255779;23;20023;-57
2021/07/03 07:04:25;;;;;;;8.77;2.85;;;;;;;15.98;100.00;99485.44;6254854;23;20027;-57
2021/07/03 07:07:28;;;;;;;9.82;2.30;;;;;;;16.03;100.00;99493.03;6255461;23;20027;-57
2021/07/03 07:10:32;;;;;;;6.05;2.67;;;;;;;16.18;100.00;99492.66;6255087;23;20030;-57
2021/07/03 07:13:35;;;;;;;4.38;1.90;;;;;;;16.28;100.00;99491.84;6255869;23;20035;-57
2021/07/03 07:16:39;;;;;;;13.02;2.05;;;;;;;16.30;100.00;99492.06;6255712;23;20428;-59
2021/07/03 07:19:42;;;;;;;6.57;2.17;;;;;;;16.31;100.00;99490.78;6255209;23;20072;-60
2021/07/03 07:22:46;;;;;;;6.05;1.48;;;;;;;16.36;100.00;99486.38;6255002;23;20027;-60
2021/07/03 07:25:50;;;;;;;7.32;1.70;;;;;;;16.37;100.00;99487.94;6254987;23;20031;-60
2021/07/03 07:28:54;;;;;;;6.07;2.03;;;;;;;16.39;100.00;99486.13;6255569;23;20031;-57
2021/07/03 07:31:57;;;;;;;6.75;1.90;;;;;;;16.30;100.00;99489.25;6255211;23;20019;-57
2021/07/03 07:35:01;;;;;;;7.07;2.08;;;;;;;16.32;100.00;99480.28;6236468;23;20019;-57
2021/07/03 07:38:04;;;;;;;4.55;1.90;;;;;;;16.27;100.00;99484.69;6254763;23;20048;-57
2021/07/03 07:41:07;;;;;;;4.45;1.60;;;;;;;16.16;100.00;99490.38;6255369;23;20023;-57
2021/07/03 07:44:10;;;;;;;4.38;2.03;;;;;;;16.07;100.00;99495.56;6255357;23;20027;-57
2021/07/03 07:47:14;;;;;;;4.35;1.90;;;;;;;16.07;100.00;99492.78;6254584;23;20031;-57
2021/07/03 07:50:17;;;;;;;6.50;2.05;;;;;;;15.99;100.00;99492.56;6253532;23;20023;-57
2021/07/03 07:53:21;;;;;;;5.82;2.28;;;;;;;15.98;100.00;99488.25;6255597;23;20036;-57
2021/07/03 07:56:24;;;;;;;8.48;1.92;;;;;;;16.01;100.00;99490.00;6255180;23;20020;-57
2021/07/03 07:59:28;;;;;;;4.38;2.03;;;;;;;16.09;100.00;99479.69;6255030;23;20023;-57
2021/07/03 08:02:31;;;;;;;6.60;2.75;;;;;;;16.07;100.00;99479.47;6255725;23;20031;-57
2021/07/03 08:05:35;;;;;;;3.25;1.42;;;;;;;16.14;100.00;99480.94;6236209;23;20030;-60
2021/07/03 08:08:39;;;;;;;10.05;2.15;;;;;;;16.23;100.00;99472.97;6255400;23;20019;-60
2021/07/03 08:11:43;;;;;;;12.10;2.60;;;;;;;16.30;100.00;99475.22;6254866;23;20333;-60
2021/07/03 08:14:47;;;;;;;10.07;2.85;;;;;;;16.27;100.00;99476.25;6255392;23;20031;-60
2021/07/03 08:17:50;;;;;;;6.07;2.40;;;;;;;16.32;100.00;99475.44;6255316;23;20023;-60
2021/07/03 08:20:54;;;;;;;4.80;1.30;;;;;;;16.37;100.00;99471.81;6255495;23;20027;-60
2021/07/03 08:23:58;;;;;;;5.72;1.67;;;;;;;16.20;100.00;99474.00;6255059;23;20027;-57
2021/07/03 08:27:02;;;;;;;5.47;1.95;;;;;;;16.23;100.00;99472.97;6254458;23;20027;-59
2021/07/03 08:30:07;;;;;;;2.85;1.55;;;;;;;16.25;100.00;99469.63;6254926;23;20476;-57
2021/07/03 08:33:11;;;;;;;7.97;1.63;;;;;;;16.14;100.00;99470.47;6255094;23;20464;-57
2021/07/03 08:36:15;;;;;;;6.75;1.50;;;;;;;16.13;100.00;99463.34;6255062;23;20023;-57
2021/07/03 08:39:18;;;;;;;5.82;1.92;;;;;;;16.28;100.00;99463.72;6255325;23;20043;-57
2021/07/03 08:42:22;;;;;;;7.65;2.38;;;;;;;16.31;100.00;99464.72;6255389;23;20029;-57
2021/07/03 08:45:25;;;;;;;5.65;1.55;;;;;;;16.30;100.00;99466.00;6236805;23;20023;-57
2021/07/03 08:48:28;;;;;;;5.05;1.35;;;;;;;16.41;100.00;99460.28;6255084;23;20023;-57
2021/07/03 08:51:32;;;;;;;5.30;1.83;;;;;;;16.33;100.00;99454.47;6265839;22;20049;-57
2021/07/03 08:54:36;;;;;;;7.88;1.42;;;;;;;16.26;100.00;99466.31;6287899;22;20023;-57
2021/07/03 08:57:54;;;;;;;2.78;1.35;;;;;;;16.19;100.00;99458.44;6287633;22;20439;-57
2021/07/03 09:00:57;;;;;;;3.53;0.93;;;;;;;16.07;100.00;99465.41;6287877;22;20030;-57
2021/07/03 09:04:01;;;;;;;3.08;0.82;;;;;;;16.02;100.00;99463.44;6287875;22;20018;-57
2021/07/03 09:07:18;;;;;;;8.27;1.98;;;;;;;15.98;100.00;99474.19;6287813;22;20030;-57
2021/07/03 09:10:23;;;;;;;2.45;1.40;;;;;;;15.89;100.00;99474.50;6287886;22;20022;-57
2021/07/03 09:13:26;;;;;;;7.15;1.75;;;;;;;15.82;100.00;99464.59;6287812;22;20031;-57
2021/07/03 09:16:32;;;;;;;2.63;1.65;;;;;;;15.68;100.00;99473.38;6287830;22;20023;-57
2021/07/03 09:19:36;;;;;;;7.45;2.25;;;;;;;15.60;100.00;99475.19;6287415;22;20443;-57
2021/07/03 09:22:39;;;;;;;2.38;0.90;;;;;;;15.50;100.00;99468.38;6287559;22;20664;-57
2021/07/03 09:26:04;;;;;;;4.88;1.10;;;;;;;15.34;100.00;99464.34;6287654;22;20026;-57
2021/07/03 09:29:11;;;;;;;3.13;0.65;;;;;;;15.26;100.00;99459.78;6287862;22;20026;-57
2021/07/03 09:32:14;;;;;;;11.15;1.33;;;;;;;15.29;100.00;99453.16;6287695;22;20031;-57
2021/07/03 09:35:19;;;;;;;1.80;0.65;;;;;;;15.52;100.00;99443.34;6287415;22;20452;-57
2021/07/03 09:38:37;;;;;;;5.05;1.02;;;;;;;15.73;100.00;99436.06;6287564;22;20309;-57
2021/07/03 09:41:40;;;;;;;2.88;0.88;;;;;;;15.81;100.00;99442.63;6287639;22;20047;-57
2021/07/03 09:44:43;;;;;;;0.82;0.43;;;;;;;15.86;100.00;99433.41;6287561;22;20341;-57
2021/07/03 09:47:46;;;;;;;1.58;0.70;;;;;;;15.87;100.00;99440.56;6287097;22;20022;-57
2021/07/03 09:50:50;;;;;;;2.88;1.00;;;;;;;15.82;100.00;99435.75;6285238;22;20030;-57
2021/07/03 09:53:56;;;;;;;1.88;0.77;;;;;;;15.86;100.00;99430.59;6268721;22;20026;-57
2021/07/03 09:56:59;;;;;;;2.63;0.80;;;;;;;15.96;100.00;99429.00;6286725;22;20014;-57
2021/07/03 10:00:09;;;;;;;1.83;0.45;;;;;;;16.00;100.00;99437.91;6286533;22;20456;-57
2021/07/03 10:03:13;;;;;;;10.18;0.98;;;;;;;16.01;100.00;99436.63;6287375;22;20027;-57
2021/07/03 10:06:31;;;;;;;22.48;1.85;;;;;;;16.03;100.00;99431.25;6287274;22;20023;-57
2021/07/03 10:09:41;;;;;;;4.90;1.38;;;;;;;16.24;100.00;99429.50;6286972;22;20046;-58
2021/07/03 10:12:50;;;;;;;3.30;1.00;;;;;;;16.45;100.00;99425.00;6286791;22;20443;-57
2021/07/03 10:16:05;;;;;;;2.28;0.88;;;;;;;16.51;100.00;99434.16;6287221;22;20022;-61
2021/07/03 10:33:22;;;;;;;3.38;1.67;;;;;;;17.20;100.00;99425.94;6294237;22;1337904;-57
2021/07/03 10:36:30;;;;;;;2.63;1.25;;;;;;;17.38;100.00;99427.22;6357837;22;20018;-57
2021/07/03 10:39:34;;;;;;;1.17;0.88;;;;;;;17.35;100.00;99425.47;6357832;22;20030;-57
2021/07/03 10:42:37;;;;;;;1.08;0.75;;;;;;;17.28;100.00;99426.09;6357587;22;20331;-57
2021/07/03 10:45:52;;;;;;;2.70;1.00;;;;;;;17.11;100.00;99414.28;6357767;22;20022;-57
2021/07/03 10:48:59;;;;;;;4.22;1.40;;;;;;;16.92;100.00;99419.88;6357582;22;20449;-57
2021/07/03 10:52:14;;;;;;;3.60;0.90;;;;;;;16.78;100.00;99420.31;6357956;22;20022;-56
2021/07/03 10:55:26;;;;;;;2.08;1.02;;;;;;;16.79;100.00;99416.19;6357712;22;20026;-56
2021/07/03 10:58:30;;;;;;;2.10;0.55;;;;;;;16.90;100.00;99422.47;6357565;22;20021;-56
2021/07/03 11:01:34;;;;;;;6.28;0.82;;;;;;;16.97;100.00;99421.13;6357357;22;20030;-56
2021/07/03 11:04:48;;;;;;;2.95;0.52;;;;;;;16.99;100.00;99422.09;6357553;22;20027;-56
2021/07/03 11:07:53;;;;;;;1.95;0.80;;;;;;;17.00;100.00;99414.44;6357664;22;20025;-55
2021/07/03 11:11:09;;;;;;;2.80;0.50;;;;;;;16.99;100.00;99413.66;6357473;22;20013;-55
2021/07/03 11:14:18;;;;;;;2.80;1.20;;;;;;;16.98;100.00;99417.03;6357454;22;20018;-55
2021/07/03 11:17:26;;;;;;;1.42;0.63;;;;;;;17.04;100.00;99410.03;6357469;22;20021;-55
2021/07/03 11:20:31;;;;;;;2.50;1.08;;;;;;;17.02;100.00;99411.84;6357279;22;20462;-55
2021/07/03 11:23:36;;;;;;;6.40;0.77;;;;;;;17.07;100.00;99411.00;6357338;22;20382;-55
2021/07/03 11:26:39;;;;;;;6.15;1.02;;;;;;;16.96;100.00;99402.69;6356985;22;20026;-56
2021/07/03 11:29:43;;;;;;;5.10;1.08;;;;;;;16.85;100.00;99403.59;6357447;22;20022;-56
2021/07/03 11:32:52;;;;;;;4.22;1.17;;;;;;;16.83;100.00;99394.94;6346111;22;20022;-55
2021/07/03 11:35:57;;;;;;;6.22;1.35;;;;;;;16.74;100.00;99397.38;6350217;22;20021;-56
2021/07/03 11:39:00;;;;;;;2.05;0.90;;;;;;;16.73;100.00;99390.97;6349874;22;20034;-56
2021/07/03 11:42:04;;;;;;;2.08;0.82;;;;;;;16.74;100.00;99397.38;6350091;22;20037;-55
2021/07/03 11:45:10;;;;;;;3.85;1.45;;;;;;;16.72;100.00;99391.50;6350235;22;20025;-55
2021/07/03 11:48:15;;;;;;;5.07;0.95;;;;;;;16.73;100.00;99378.97;6350042;22;20026;-56
2021/07/03 11:51:20;;;;;;;3.22;1.08;;;;;;;16.64;100.00;99383.66;6349864;22;20018;-55
2021/07/03 11:54:24;;;;;;;1.80;1.10;;;;;;;16.57;100.00;99387.06;6349249;22;20343;-56
2021/07/03 11:57:39;;;;;;;6.60;1.52;;;;;;;16.43;100.00;99382.59;6349209;22;20030;-56
2021/07/03 12:01:08;;;;;;;2.30;0.90;;;;;;;16.41;100.00;99393.59;6350041;22;20022;-56
2021/07/03 12:04:12;;;;;;;2.58;1.02;;;;;;;16.48;100.00;99381.75;6349768;22;20320;-55
2021/07/03 12:07:21;;;;;;;1.25;0.50;;;;;;;16.52;100.00;99387.88;6350164;22;20018;-55
2021/07/03 12:10:36;;;;;;;5.22;1.25;;;;;;;16.52;100.00;99393.50;6349197;22;20021;-55
2021/07/03 12:13:49;;;;;;;3.05;1.20;;;;;;;16.50;100.00;99379.19;6349562;22;20017;-55
2021/07/03 12:16:58;;;;;;;2.22;1.08;;;;;;;16.61;100.00;99390.31;6349520;22;20026;-55
2021/07/03 12:20:04;;;;;;;2.88;1.20;;;;;;;16.67;100.00;99376.97;6350157;22;20335;-55
2021/07/03 12:23:08;;;;;;;4.25;1.45;;;;;;;16.77;100.00;99379.41;6349840;22;20038;-55
2021/07/03 12:26:12;;;;;;;6.50;1.08;;;;;;;16.84;100.00;99367.56;6349777;22;20315;-55
2021/07/03 12:29:27;;;;;;;5.15;2.10;;;;;;;16.98;100.00;99360.75;6349727;22;20311;-55
2021/07/03 12:32:31;;;;;;;5.10;0.98;;;;;;;17.21;100.00;99362.72;6342669;22;20422;-55
2021/07/03 12:35:43;;;;;;;6.40;1.98;;;;;;;17.27;100.00;99354.97;6348762;22;20037;-55
2021/07/03 12:38:47;;;;;;;5.13;1.63;;;;;;;17.42;100.00;99360.13;6348991;22;20033;-55
2021/07/03 12:41:56;;;;;;;8.45;1.52;;;;;;;17.52;100.00;99358.44;6349207;22;20022;-55
2021/07/03 12:45:05;;;;;;;3.65;1.35;;;;;;;17.55;100.00;99354.56;6348814;22;20025;-55
2021/07/03 12:48:13;;;;;;;6.95;1.65;;;;;;;17.43;100.00;99353.19;6348766;22;20026;-55
2021/07/03 12:51:18;;;;;;;2.47;1.13;;;;;;;17.25;100.00;99349.13;6330184;22;20061;-55
2021/07/03 12:54:25;;;;;;;8.70;3.17;;;;;;;17.23;100.00;99354.50;6349171;22;20026;-55
2021/07/03 12:57:45;;;;;;;10.60;2.33;;;;;;;17.24;100.00;99347.56;6349229;22;20025;-55
2021/07/03 13:00:51;;;;;;;4.70;1.90;;;;;;;17.40;100.00;99343.00;6349181;22;20022;-55
2021/07/03 13:03:55;;;;;;;10.02;1.48;;;;;;;17.61;100.00;99343.22;6349161;22;20029;-55
2021/07/03 13:06:58;;;;;;;7.45;2.25;;;;;;;17.78;100.00;99350.09;6349448;22;20026;-56
2021/07/03 13:10:02;;;;;;;4.75;1.33;;;;;;;18.05;100.00;99336.81;6349261;22;20023;-55
2021/07/03 13:13:06;;;;;;;4.20;1.83;;;;;;;18.60;100.00;99329.41;6349431;22;20021;-55
2021/07/03 13:16:10;;;;;;;5.00;1.30;;;;;;;18.91;100.00;99331.31;6348854;22;20026;-56
2021/07/03 13:19:14;;;;;;;4.68;2.38;;;;;;;19.27;100.00;99318.19;6349079;22;20486;-56
2021/07/03 13:22:17;;;;;;;6.63;3.05;;;;;;;19.63;100.00;99316.31;6348578;22;20026;-56
2021/07/03 13:25:20;;;;;;;5.03;1.08;;;;;;;20.46;100.00;99309.78;6348783;22;20024;-56
2021/07/03 13:28:24;;;;;;;3.55;1.67;;;;;;;20.86;100.00;99303.19;6348309;22;20351;-56
2021/07/03 13:31:27;;;;;;;5.28;2.10;;;;;;;21.17;100.00;99298.41;6346505;22;20026;-56
2021/07/03 13:34:31;;;;;;;6.95;1.38;;;;;;;21.18;100.00;99293.53;6348447;22;20022;-55
2021/07/03 13:37:34;;;;;;;7.50;1.58;;;;;;;21.23;100.00;99287.66;6329189;22;20037;-56
2021/07/03 13:40:38;;;;;;;4.80;1.95;;;;;;;21.00;100.00;99284.00;6348216;22;20021;-56
2021/07/03 13:43:42;;;;;;;8.27;2.05;;;;;;;20.82;100.00;99279.41;6348554;22;20018;-56
2021/07/03 13:46:46;;;;;;;6.00;1.52;;;;;;;20.19;100.00;99275.28;6348558;22;20022;-56
2021/07/03 13:49:50;;;;;;;6.78;1.90;;;;;;;19.98;100.00;99272.50;6348243;22;20026;-56
2021/07/03 13:52:54;;;;;;;4.00;1.65;;;;;;;20.12;100.00;99270.34;6348493;22;20481;-56
2021/07/03 13:55:57;;;;;;;3.38;1.40;;;;;;;20.08;100.00;99275.56;6328742;22;20022;-56
2021/07/03 13:59:00;;;;;;;5.85;2.45;;;;;;;20.48;100.00;99262.66;6348118;22;20466;-56
2021/07/03 14:02:04;;;;;;;2.83;1.80;;;;;;;20.73;100.00;99260.09;6348231;22;20026;-57
2021/07/03 14:05:08;;;;;;;4.85;1.92;;;;;;;20.90;100.00;99252.63;6348056;22;20041;-56
2021/07/03 14:08:11;;;;;;;2.70;1.00;;;;;;;21.10;100.00;99243.28;6348162;22;20026;-56
2021/07/03 14:11:15;;;;;;;6.72;1.38;;;;;;;21.16;100.00;99239.53;6348234;22;20029;-56
2021/07/03 14:14:18;;;;;;;2.40;0.75;;;;;;;21.26;100.00;99238.41;6348086;22;20026;-57
2021/07/03 14:17:22;;;;;;;5.03;1.02;;;;;;;21.03;100.00;99238.34;6348108;22;20026;-57
2021/07/03 14:20:25;;;;;;;4.95;1.33;;;;;;;21.10;100.00;99226.28;6347911;22;20351;-56
2021/07/03 14:23:29;;;;;;;3.90;1.20;;;;;;;20.92;100.00;99233.00;6348279;22;20461;-56
2021/07/03 14:26:32;;;;;;;2.65;1.25;;;;;;;20.67;100.00;99234.81;6347803;22;20022;-56
2021/07/03 14:29:36;;;;;;;4.50;1.40;;;;;;;20.69;100.00;99226.53;6348047;22;20042;-57
2021/07/03 14:32:39;;;;;;;5.78;1.50;;;;;;;20.91;100.00;99228.69;6340614;22;20466;-56